Time;durP1;ratioP1;P1;durP2;ratioP2;P2;SDS_P1;SDS_P2;PMS_P1;PMS_P2;Temp;Humidity;BMP_temperature;BMP_pressure;BME280_temperature;BME280_humidity;BME280_pressure;Samples;Min_cycle;Max_cycle;Signal;HPM_P1;HPM_P2
2021/10/04 00:01:02;;;;;;;0.43;0.43;;;;;;;14.31;100.00;100538.00;4972122;28;20313;-71
2021/10/04 00:03:30;;;;;;;0.87;0.50;;;;;;;14.19;100.00;100541.50;4941080;28;20190;-73
2021/10/04 00:05:56;;;;;;;1.53;0.57;;;;;;;14.35;100.00;100544.47;4939396;28;20735;-71
2021/10/04 00:08:21;;;;;;;0.40;0.40;;;;;;;14.27;100.00;100547.91;4940207;28;20198;-72
2021/10/04 00:10:51;;;;;;;1.13;0.40;;;;;;;14.31;100.00;100553.59;4956115;28;20234;-72
2021/10/04 00:13:17;;;;;;;2.37;0.40;;;;;;;14.30;100.00;100555.53;4940629;28;20191;-72
2021/10/04 00:15:44;;;;;;;1.47;0.57;;;;;;;14.22;100.00;100570.97;4937195;29;20219;-72
2021/10/04 00:18:10;;;;;;;0.50;0.40;;;;;;;14.16;100.00;100558.50;4937338;29;20182;-72
2021/10/04 00:20:36;;;;;;;0.73;0.40;;;;;;;14.11;100.00;100570.31;4966146;28;20234;-72
2021/10/04 00:23:01;;;;;;;0.57;0.40;;;;;;;14.05;100.00;100570.69;4921115;29;20179;-72
2021/10/04 00:25:29;;;;;;;0.73;0.40;;;;;;;14.03;100.00;100567.47;4953502;28;20650;-70
2021/10/04 00:27:57;;;;;;;0.87;0.50;;;;;;;14.02;100.00;100571.28;4920641;29;20190;-71
2021/10/04 00:30:23;;;;;;;1.97;0.50;;;;;;;14.05;100.00;100560.56;4948850;28;20213;-74
2021/10/04 00:32:49;;;;;;;0.60;0.40;;;;;;;13.92;100.00;100558.56;4955714;28;20191;-73
2021/10/04 00:35:16;;;;;;;1.43;0.77;;;;;;;14.04;100.00;100558.13;4927689;29;20187;-73
2021/10/04 00:37:42;;;;;;;1.13;0.60;;;;;;;14.01;100.00;100548.63;4953598;29;20199;-71
2021/10/04 00:40:12;;;;;;;0.50;0.50;;;;;;;13.94;100.00;100550.88;4937754;28;20290;-71
2021/10/04 00:42:38;;;;;;;1.27;0.70;;;;;;;14.06;100.00;100569.56;4956198;28;20250;-71
2021/10/04 00:45:05;;;;;;;0.40;0.40;;;;;;;13.93;100.00;100578.47;4935700;29;20206;-72
2021/10/04 00:47:30;;;;;;;1.63;0.53;;;;;;;14.19;100.00;100602.41;4904918;29;20184;-73
2021/10/04 00:49:56;;;;;;;1.03;0.50;;;;;;;14.02;100.00;100598.59;4960593;28;20222;-73
2021/10/04 00:52:21;;;;;;;0.50;0.50;;;;;;;13.89;100.00;100599.31;4972058;28;20241;-73
2021/10/04 00:54:47;;;;;;;0.63;0.50;;;;;;;14.00;100.00;100606.25;4950044;29;20193;-72
2021/10/04 00:57:15;;;;;;;0.73;0.60;;;;;;;13.76;100.00;100583.66;4904319;29;20223;-73
2021/10/04 00:59:43;;;;;;;0.70;0.40;;;;;;;13.88;100.00;100592.19;4941115;28;20179;-72
2021/10/04 01:02:08;;;;;;;0.60;0.50;;;;;;;13.76;100.00;100596.50;4954996;28;20276;-72
2021/10/04 01:04:34;;;;;;;0.70;0.70;;;;;;;13.85;100.00;100598.28;4971225;28;20595;-72
2021/10/04 01:07:00;;;;;;;1.93;0.93;;;;;;;13.77;100.00;100600.84;4922922;28;20684;-73
2021/10/04 01:09:28;;;;;;;0.97;0.60;;;;;;;13.74;100.00;100596.78;4964066;28;20210;-73
2021/10/04 01:11:55;;;;;;;1.93;0.67;;;;;;;13.54;100.00;100612.63;4972596;28;20229;-72
2021/10/04 01:14:20;;;;;;;2.50;0.70;;;;;;;13.68;100.00;100617.06;4956415;28;20178;-73
2021/10/04 01:16:48;;;;;;;1.30;0.80;;;;;;;13.69;100.00;100615.16;4922201;29;20227;-73
2021/10/04 01:19:19;;;;;;;1.83;0.70;;;;;;;13.55;100.00;100603.31;4959406;28;20269;-74
2021/10/04 01:21:48;;;;;;;1.97;0.83;;;;;;;13.63;100.00;100599.97;4969891;28;20256;-73
2021/10/04 01:24:17;;;;;;;1.23;0.70;;;;;;;13.58;100.00;100613.66;4955887;28;20194;-73
2021/10/04 01:26:45;;;;;;;1.00;0.80;;;;;;;13.52;100.00;100615.63;4940908;28;20225;-73
2021/10/04 01:29:13;;;;;;;2.13;0.63;;;;;;;13.48;100.00;100625.53;4940002;28;20186;-73
2021/10/04 01:31:40;;;;;;;1.10;0.80;;;;;;;13.31;100.00;100624.34;4939260;28;20222;-72
2021/10/04 01:34:06;;;;;;;1.37;1.07;;;;;;;13.44;100.00;100631.84;4937221;29;20182;-72
2021/10/04 01:36:34;;;;;;;2.33;1.00;;;;;;;13.45;100.00;100642.47;4933594;28;20960;-73
2021/10/04 01:39:00;;;;;;;1.57;0.90;;;;;;;13.48;100.00;100652.00;4971156;28;20680;-72
2021/10/04 01:41:28;;;;;;;2.27;1.20;;;;;;;13.45;100.00;100647.13;4922643;29;20312;-72
2021/10/04 01:43:53;;;;;;;1.17;0.90;;;;;;;13.41;100.00;100656.19;4901632;29;20195;-72
2021/10/04 01:46:19;;;;;;;1.47;0.90;;;;;;;13.35;100.00;100658.16;4921357;28;20233;-72
2021/10/04 01:48:49;;;;;;;1.93;0.90;;;;;;;13.25;100.00;100663.72;4954938;28;20339;-72
2021/10/04 01:51:15;;;;;;;1.43;0.90;;;;;;;13.32;100.00;100661.47;4960434;28;20257;-73
2021/10/04 01:53:43;;;;;;;1.40;1.10;;;;;;;13.35;100.00;100662.78;4919901;29;20653;-73
2021/10/04 01:56:09;;;;;;;2.03;1.17;;;;;;;13.42;100.00;100669.50;4940358;29;20648;-72
2021/10/04 01:58:37;;;;;;;1.30;0.87;;;;;;;13.25;100.00;100665.63;4951759;29;20179;-74
2021/10/04 02:01:03;;;;;;;1.30;1.00;;;;;;;13.27;100.00;100672.41;4931191;29;20237;-73
2021/10/04 02:03:29;;;;;;;1.67;1.10;;;;;;;13.23;100.00;100665.13;4939628;29;20182;-73
2021/10/04 02:05:55;;;;;;;1.73;1.00;;;;;;;13.33;100.00;100671.28;4924995;29;20735;-73
2021/10/04 02:08:21;;;;;;;2.20;0.83;;;;;;;13.33;100.00;100678.63;4940007;29;20187;-72
2021/10/04 02:10:48;;;;;;;1.70;1.10;;;;;;;13.29;100.00;100677.59;4944060;28;20222;-72
2021/10/04 02:13:16;;;;;;;2.93;1.00;;;;;;;13.23;100.00;100692.38;4927113;28;20194;-72
2021/10/04 02:15:46;;;;;;;1.10;1.00;;;;;;;13.17;100.00;100677.19;4941734;28;20320;-72
2021/10/04 02:18:15;;;;;;;2.17;1.20;;;;;;;13.16;100.00;100678.28;4942169;28;20187;-73
2021/10/04 02:20:41;;;;;;;1.90;1.00;;;;;;;13.25;100.00;100690.19;4954807;29;20254;-71
2021/10/04 02:23:07;;;;;;;2.13;1.30;;;;;;;13.03;100.00;100681.69;4924110;29;20218;-72
2021/10/04 02:25:41;;;;;;;2.30;1.47;;;;;;;13.20;100.00;100682.84;4923460;29;20693;-72
2021/10/04 02:28:09;;;;;;;1.43;1.20;;;;;;;13.24;100.00;100683.91;4905559;29;20266;-71
2021/10/04 02:30:35;;;;;;;2.43;1.27;;;;;;;13.12;100.00;100685.41;4904856;29;20636;-73
2021/10/04 02:33:00;;;;;;;2.67;1.40;;;;;;;13.12;100.00;100672.56;4904934;29;20196;-73
2021/10/04 02:35:28;;;;;;;1.87;1.27;;;;;;;13.21;100.00;100664.59;4920141;29;20261;-72
2021/10/04 02:37:56;;;;;;;2.60;1.40;;;;;;;13.21;100.00;100661.88;4905191;29;20274;-72
2021/10/04 02:40:24;;;;;;;1.67;1.50;;;;;;;13.19;100.00;100672.25;4919732;29;20211;-73
2021/10/04 02:42:55;;;;;;;2.40;1.40;;;;;;;13.20;100.00;100666.47;4920031;29;20541;-72
2021/10/04 02:45:23;;;;;;;2.30;1.40;;;;;;;13.21;100.00;100662.66;4919222;29;20604;-73
2021/10/04 02:47:52;;;;;;;3.10;1.50;;;;;;;13.16;100.00;100651.81;4946673;29;20186;-72
2021/10/04 02:50:22;;;;;;;1.50;1.40;;;;;;;13.16;100.00;100659.19;4955594;28;20203;-73
2021/10/04 02:52:48;;;;;;;4.00;1.60;;;;;;;13.11;100.00;100670.97;4927444;29;20198;-73
2021/10/04 02:55:16;;;;;;;3.37;1.60;;;;;;;13.15;100.00;100669.28;4937944;29;20187;-72
2021/10/04 02:57:42;;;;;;;2.93;1.40;;;;;;;13.27;100.00;100666.97;4960752;28;20182;-72
2021/10/04 03:00:11;;;;;;;3.17;1.87;;;;;;;13.25;100.00;100680.06;4941821;28;20249;-72
2021/10/04 03:02:37;;;;;;;2.40;1.33;;;;;;;13.27;100.00;100690.72;4947286;29;20601;-72
2021/10/04 03:05:03;;;;;;;3.60;1.60;;;;;;;13.14;100.00;100683.22;4939282;29;20215;-72
2021/10/04 03:07:28;;;;;;;3.07;1.47;;;;;;;13.10;100.00;100676.69;4931502;28;20187;-73
2021/10/04 03:09:58;;;;;;;2.73;1.43;;;;;;;13.09;100.00;100677.78;4957756;28;20277;-72
2021/10/04 03:12:26;;;;;;;3.77;1.47;;;;;;;13.12;100.00;100685.41;4929310;29;20224;-72
2021/10/04 03:14:54;;;;;;;1.50;1.10;;;;;;;13.20;100.00;100703.88;4903254;29;20172;-72
2021/10/04 03:17:20;;;;;;;1.90;1.10;;;;;;;13.17;100.00;100693.56;4902310;29;20211;-72
2021/10/04 03:19:47;;;;;;;2.87;1.40;;;;;;;13.25;100.00;100692.91;4927704;29;20218;-72
2021/10/04 03:22:13;;;;;;;2.87;1.30;;;;;;;13.20;100.00;100687.50;4915947;29;20243;-72
2021/10/04 03:24:38;;;;;;;1.70;1.13;;;;;;;13.16;100.00;100697.38;4903283;29;20599;-71
2021/10/04 03:27:06;;;;;;;1.83;1.40;;;;;;;13.04;100.00;100687.94;4937465;29;20214;-73
2021/10/04 03:29:36;;;;;;;2.70;1.20;;;;;;;13.05;100.00;100690.38;4922832;29;20688;-72
2021/10/04 03:32:02;;;;;;;1.93;1.07;;;;;;;12.95;100.00;100679.59;4921941;29;20278;-73
2021/10/04 03:34:28;;;;;;;3.50;1.23;;;;;;;13.07;100.00;100685.44;4950498;29;20203;-73
2021/10/04 03:36:54;;;;;;;2.13;1.23;;;;;;;13.06;100.00;100685.72;4953743;29;20215;-73
2021/10/04 03:39:19;;;;;;;2.77;1.33;;;;;;;13.17;100.00;100680.72;4906614;29;20214;-73
2021/10/04 03:41:45;;;;;;;2.70;1.27;;;;;;;13.23;100.00;100684.22;4954397;29;20215;-72
2021/10/04 03:44:11;;;;;;;3.43;1.40;;;;;;;13.31;100.00;100694.47;4937205;29;20748;-73
2021/10/04 03:46:39;;;;;;;3.17;1.33;;;;;;;13.35;100.00;100690.91;4948864;28;20234;-72
2021/10/04 03:49:04;;;;;;;2.17;1.33;;;;;;;13.21;100.00;100694.59;4943216;28;20652;-71
2021/10/04 03:51:33;;;;;;;3.73;1.20;;;;;;;13.31;100.00;100702.66;4940705;28;20305;-72
2021/10/04 03:54:00;;;;;;;1.90;1.27;;;;;;;13.18;100.00;100706.06;4934522;29;20179;-72
2021/10/04 03:56:26;;;;;;;2.97;1.70;;;;;;;13.14;100.00;100713.22;4937658;29;20297;-72
2021/10/04 03:58:54;;;;;;;1.27;1.13;;;;;;;13.16;100.00;100714.53;4918647;29;20261;-73
2021/10/04 04:01:19;;;;;;;1.17;0.90;;;;;;;13.20;100.00;100714.78;4922428;29;20247;-72
2021/10/04 04:03:51;;;;;;;2.37;1.03;;;;;;;13.23;100.00;100722.41;4918586;29;20191;-72
2021/10/04 04:06:21;;;;;;;1.87;1.10;;;;;;;13.08;100.00;100722.53;4936426;28;20257;-73
2021/10/04 04:08:47;;;;;;;1.83;1.00;;;;;;;13.21;100.00;100719.94;4905053;29;20732;-73
2021/10/04 04:11:15;;;;;;;2.50;1.17;;;;;;;13.14;100.00;100716.75;4953339;29;20249;-73
2021/10/04 04:13:43;;;;;;;1.87;1.03;;;;;;;13.02;100.00;100723.69;4947824;28;20277;-73
2021/10/04 04:16:11;;;;;;;3.03;1.20;;;;;;;13.04;100.00;100715.19;4970926;28;20330;-73
2021/10/04 04:18:39;;;;;;;2.93;1.27;;;;;;;13.06;100.00;100724.75;4949481;28;20214;-73
2021/10/04 04:21:04;;;;;;;4.30;1.30;;;;;;;13.08;100.00;100730.72;4938340;28;20238;-73
2021/10/04 04:23:30;;;;;;;1.67;1.03;;;;;;;13.00;100.00;100736.78;4936490;28;20194;-73
2021/10/04 04:25:55;;;;;;;2.27;1.20;;;;;;;12.98;100.00;100747.16;4939575;28;20230;-77
2021/10/04 04:28:25;;;;;;;1.60;1.30;;;;;;;12.97;100.00;100748.28;4924618;28;20179;-77
2021/10/04 04:30:51;;;;;;;2.10;1.03;;;;;;;13.01;100.00;100751.25;4940314;28;20326;-71
2021/10/04 04:33:19;;;;;;;1.40;0.90;;;;;;;12.93;100.00;100752.66;4941291;28;20653;-72
2021/10/04 04:35:44;;;;;;;5.17;1.27;;;;;;;12.93;100.00;100768.19;4972209;28;20246;-72
2021/10/04 04:38:10;;;;;;;2.27;1.20;;;;;;;12.87;100.00;100748.34;4931713;28;20194;-72
2021/10/04 04:40:36;;;;;;;2.60;1.10;;;;;;;12.89;100.00;100762.53;4939424;28;20307;-72
2021/10/04 04:43:01;;;;;;;1.63;1.00;;;;;;;12.89;100.00;100767.13;4955743;28;20190;-72
2021/10/04 04:45:31;;;;;;;2.90;1.10;;;;;;;12.83;100.00;100763.63;4939183;28;20238;-72
2021/10/04 04:47:57;;;;;;;1.47;1.10;;;;;;;13.02;100.00;100767.31;4940033;28;20186;-72
2021/10/04 04:50:22;;;;;;;2.00;1.03;;;;;;;12.97;100.00;100775.53;4943242;28;20210;-73
2021/10/04 04:52:50;;;;;;;4.17;1.87;;;;;;;13.09;100.00;100774.09;4939797;28;20201;-73
2021/10/04 04:55:15;;;;;;;2.10;1.50;;;;;;;13.04;100.00;100776.03;4939427;28;20178;-72
2021/10/04 04:57:41;;;;;;;2.03;1.10;;;;;;;13.06;100.00;100784.75;4955717;28;20237;-72
2021/10/04 05:00:10;;;;;;;4.20;1.40;;;;;;;13.05;100.00;100783.09;4935993;29;20242;-72
2021/10/04 05:02:38;;;;;;;3.17;1.20;;;;;;;12.93;100.00;100782.66;4920724;29;20222;-72
2021/10/04 05:05:06;;;;;;;1.50;1.23;;;;;;;12.97;100.00;100782.91;4967075;28;20213;-72
2021/10/04 05:07:32;;;;;;;2.03;1.20;;;;;;;13.02;100.00;100786.41;4929304;28;20319;-73
2021/10/04 05:10:02;;;;;;;2.63;1.30;;;;;;;12.93;100.00;100795.47;4934405;28;20578;-72
2021/10/04 05:12:28;;;;;;;1.50;1.07;;;;;;;13.03;100.00;100793.47;4938278;28;20232;-74
2021/10/04 05:14:54;;;;;;;1.43;1.33;;;;;;;12.90;100.00;100796.84;4939535;28;20186;-72
2021/10/04 05:17:21;;;;;;;3.10;1.10;;;;;;;13.01;100.00;100801.13;4934677;29;20231;-73
2021/10/04 05:19:47;;;;;;;3.37;1.17;;;;;;;13.01;100.00;100795.69;4924182;28;20187;-71
2021/10/04 05:22:12;;;;;;;1.60;0.87;;;;;;;13.08;100.00;100807.91;4967821;28;20785;-72
2021/10/04 05:24:38;;;;;;;2.93;1.30;;;;;;;13.08;100.00;100799.72;4939184;28;20213;-73
2021/10/04 05:27:04;;;;;;;1.33;1.10;;;;;;;12.95;100.00;100798.72;4920175;28;20261;-72
2021/10/04 05:29:33;;;;;;;2.23;1.10;;;;;;;13.15;100.00;100791.22;4949089;28;20252;-72
2021/10/04 05:31:58;;;;;;;2.57;1.00;;;;;;;13.30;100.00;100800.06;4930705;28;20222;-71
2021/10/04 05:34:24;;;;;;;2.83;1.33;;;;;;;13.17;100.00;100789.00;4931519;28;20183;-71
2021/10/04 05:36:49;;;;;;;1.07;0.97;;;;;;;13.15;100.00;100789.28;4936497;28;20314;-72
2021/10/04 05:39:15;;;;;;;3.23;1.10;;;;;;;13.19;100.00;100784.09;4921588;28;20186;-73
2021/10/04 05:41:40;;;;;;;3.23;0.90;;;;;;;13.28;100.00;100783.19;4952761;28;20252;-71
2021/10/04 05:44:07;;;;;;;3.43;1.00;;;;;;;13.26;100.00;100785.38;4954533;28;20188;-73
2021/10/04 05:46:35;;;;;;;1.20;1.10;;;;;;;13.26;100.00;100782.66;4968982;28;20305;-72
2021/10/04 05:49:01;;;;;;;2.50;1.40;;;;;;;13.29;100.00;100782.06;4953323;28;21060;-72
2021/10/04 05:51:26;;;;;;;3.67;1.30;;;;;;;13.23;100.00;100782.41;4970575;28;20240;-73
2021/10/04 05:53:54;;;;;;;2.37;1.10;;;;;;;13.22;100.00;100783.50;4939879;28;20182;-72
2021/10/04 05:56:24;;;;;;;1.77;1.60;;;;;;;13.29;100.00;100787.53;4953869;28;20222;-72
2021/10/04 05:58:55;;;;;;;2.67;1.60;;;;;;;13.23;100.00;100796.06;4956172;28;20241;-72
2021/10/04 06:01:23;;;;;;;3.37;1.90;;;;;;;13.32;100.00;100811.50;4958230;28;20281;-73
2021/10/04 06:03:48;;;;;;;2.73;1.90;;;;;;;13.15;100.00;100813.03;4933091;29;20682;-71
2021/10/04 06:06:16;;;;;;;1.40;1.30;;;;;;;13.30;100.00;100812.91;4973753;28;20273;-73
2021/10/04 06:08:42;;;;;;;1.70;1.23;;;;;;;13.24;100.00;100814.88;4960194;28;20186;-72
2021/10/04 06:11:07;;;;;;;1.37;1.00;;;;;;;13.29;100.00;100814.00;4944232;28;20237;-72
2021/10/04 06:13:35;;;;;;;2.67;1.33;;;;;;;13.26;100.00;100820.84;4924642;28;20559;-73
2021/10/04 06:16:03;;;;;;;1.67;1.20;;;;;;;13.18;100.00;100826.91;4935397;29;20705;-74
2021/10/04 06:18:29;;;;;;;3.53;1.10;;;;;;;13.33;100.00;100823.22;4920448;29;20185;-73
2021/10/04 06:20:54;;;;;;;2.77;0.90;;;;;;;13.39;100.00;100817.47;4931249;28;20304;-72
2021/10/04 06:23:20;;;;;;;2.67;1.10;;;;;;;13.31;100.00;100820.78;4955188;28;20186;-72
2021/10/04 06:25:45;;;;;;;2.97;0.87;;;;;;;13.37;100.00;100824.28;4936120;29;20245;-73
2021/10/04 06:28:16;;;;;;;2.00;0.80;;;;;;;13.31;100.00;100825.44;4919910;29;20198;-72
2021/10/04 06:30:47;;;;;;;1.70;1.00;;;;;;;13.45;100.00;100836.22;4935305;28;20226;-73
2021/10/04 06:33:17;;;;;;;2.63;1.00;;;;;;;13.41;100.00;100845.28;4955728;28;20261;-72
2021/10/04 06:35:47;;;;;;;4.93;1.03;;;;;;;13.42;100.00;100848.81;4948867;28;20265;-74
2021/10/04 06:38:13;;;;;;;2.17;0.90;;;;;;;13.56;100.00;100851.41;4954960;28;20285;-72
2021/10/04 06:40:39;;;;;;;2.37;1.40;;;;;;;13.39;100.00;100849.38;4958285;28;20309;-72
2021/10/04 06:43:05;;;;;;;2.87;0.80;;;;;;;13.51;100.00;100865.06;4955033;28;20233;-72
2021/10/04 06:45:32;;;;;;;1.67;0.80;;;;;;;13.52;100.00;100865.91;4932542;29;20321;-74
2021/10/04 06:48:03;;;;;;;2.13;1.00;;;;;;;13.57;100.00;100868.59;4935555;29;20191;-72
2021/10/04 06:50:28;;;;;;;2.27;0.70;;;;;;;13.52;100.00;100877.63;4958839;28;20284;-73
2021/10/04 06:52:54;;;;;;;2.47;0.90;;;;;;;13.68;100.00;100865.50;4943123;28;20186;-71
2021/10/04 06:55:19;;;;;;;1.70;1.03;;;;;;;13.63;100.00;100873.72;4943140;28;20275;-72
2021/10/04 06:57:47;;;;;;;1.57;0.90;;;;;;;13.90;100.00;100874.03;4959829;28;20174;-73
2021/10/04 07:00:20;;;;;;;2.10;0.90;;;;;;;14.00;100.00;100882.09;4959175;28;20914;-72
2021/10/04 07:02:50;;;;;;;1.83;0.70;;;;;;;14.10;100.00;100895.69;4945689;28;20210;-72
2021/10/04 07:05:16;;;;;;;2.33;0.80;;;;;;;13.98;100.00;100903.44;4942016;28;20229;-73
2021/10/04 07:07:41;;;;;;;2.17;0.80;;;;;;;14.11;100.00;100910.97;4957830;28;20226;-71
2021/10/04 07:10:08;;;;;;;3.63;0.90;;;;;;;14.31;100.00;100903.38;4925512;28;20868;-71
2021/10/04 07:12:36;;;;;;;2.03;0.80;;;;;;;14.38;100.00;100907.38;4973194;28;20187;-72
2021/10/04 07:15:04;;;;;;;3.70;0.80;;;;;;;14.41;100.00;100920.50;4957829;28;20194;-72
2021/10/04 07:17:30;;;;;;;1.10;0.90;;;;;;;14.27;100.00;100935.94;4958907;28;20211;-71
2021/10/04 07:19:56;;;;;;;1.80;0.90;;;;;;;14.36;100.00;100939.66;4958018;28;20268;-71
2021/10/04 07:22:24;;;;;;;2.80;0.80;;;;;;;14.32;100.00;100930.41;4941058;28;20242;-71
2021/10/04 07:24:49;;;;;;;1.40;0.60;;;;;;;14.26;100.00;100933.47;4958154;28;20285;-71
2021/10/04 07:27:15;;;;;;;2.08;0.75;;;;;;;14.26;100.00;100930.75;4935589;28;20222;-74
2021/10/04 07:29:41;;;;;;;2.80;0.82;;;;;;;14.50;100.00;100940.59;4940709;28;20334;-71
2021/10/04 07:32:09;;;;;;;2.43;1.00;;;;;;;14.65;100.00;100948.59;4974135;28;20289;-72
2021/10/04 07:34:35;;;;;;;2.40;0.83;;;;;;;14.85;100.00;100949.19;4957305;28;20186;-72
2021/10/04 07:37:03;;;;;;;2.42;0.70;;;;;;;14.56;100.00;100961.31;4947886;28;20229;-73
2021/10/04 07:39:30;;;;;;;1.63;0.70;;;;;;;14.67;100.00;100952.69;4937000;28;20187;-72
2021/10/04 07:41:57;;;;;;;2.93;0.90;;;;;;;14.60;100.00;100956.88;4931627;28;20226;-72
2021/10/04 07:44:25;;;;;;;1.27;0.60;;;;;;;14.70;100.00;100948.56;4973182;28;20215;-72
2021/10/04 07:46:51;;;;;;;2.07;0.67;;;;;;;14.81;100.00;100944.59;4967566;28;20260;-72
2021/10/04 07:49:17;;;;;;;3.13;0.80;;;;;;;14.82;100.00;100943.50;4925495;28;20225;-72
2021/10/04 07:51:43;;;;;;;1.55;0.70;;;;;;;14.96;100.00;100944.41;4924861;29;20313;-73
2021/10/04 07:54:08;;;;;;;1.27;0.63;;;;;;;15.21;100.00;100959.38;4937796;29;20195;-72
2021/10/04 07:56:39;;;;;;;1.57;0.70;;;;;;;15.14;100.00;100958.94;4925346;28;20210;-72
2021/10/04 07:59:07;;;;;;;1.43;0.60;;;;;;;15.22;100.00;100954.72;4957413;28;20187;-72
2021/10/04 08:01:35;;;;;;;2.13;0.93;;;;;;;15.27;100.00;100962.88;4952612;29;20218;-73
2021/10/04 08:04:01;;;;;;;2.50;0.60;;;;;;;15.42;100.00;100958.00;4921761;29;20190;-72
2021/10/04 08:06:26;;;;;;;2.92;0.80;;;;;;;15.55;100.00;100958.06;4922585;28;20231;-72
2021/10/04 08:08:55;;;;;;;1.42;0.65;;;;;;;15.70;100.00;100948.81;4957433;28;20187;-71
2021/10/04 08:11:26;;;;;;;2.35;0.60;;;;;;;15.51;100.00;100956.22;4972026;28;20222;-72
2021/10/04 08:13:52;;;;;;;2.03;0.70;;;;;;;15.44;100.00;100969.47;4973690;28;20193;-72
2021/10/04 08:16:18;;;;;;;2.77;0.80;;;;;;;15.50;100.00;100957.34;4940035;28;20218;-73
2021/10/04 08:18:46;;;;;;;2.30;0.90;;;;;;;15.62;100.00;100960.41;4957550;28;20198;-73
2021/10/04 08:21:16;;;;;;;2.22;0.60;;;;;;;15.69;100.00;100944.44;4956571;28;20225;-72
2021/10/04 08:23:45;;;;;;;1.58;0.40;;;;;;;15.65;100.00;100937.91;4942682;28;20190;-73
2021/10/04 08:26:14;;;;;;;1.25;0.73;;;;;;;15.67;100.00;100938.44;4940156;28;20261;-70
2021/10/04 08:28:40;;;;;;;5.97;1.23;;;;;;;15.71;100.00;100943.00;4971071;28;20190;-73
2021/10/04 08:31:10;;;;;;;1.25;0.70;;;;;;;15.79;100.00;100951.38;4936915;29;20497;-71
2021/10/04 08:33:38;;;;;;;1.52;0.73;;;;;;;15.63;100.00;100945.63;4940107;29;20179;-72
2021/10/04 08:36:05;;;;;;;1.80;0.70;;;;;;;15.85;100.00;100943.88;4920516;29;20676;-71
2021/10/04 08:38:31;;;;;;;1.20;0.60;;;;;;;15.75;100.00;100960.50;4933079;29;20274;-73
2021/10/04 08:40:57;;;;;;;1.33;0.60;;;;;;;15.94;100.00;100945.63;4923038;29;20249;-72
2021/10/04 08:43:25;;;;;;;2.47;0.90;;;;;;;15.97;100.00;100958.75;4955709;29;20599;-72
2021/10/04 08:45:57;;;;;;;0.90;0.60;;;;;;;15.99;100.00;100962.00;4921202;29;20235;-71
2021/10/04 08:48:26;;;;;;;1.35;0.50;;;;;;;16.10;100.00;100955.22;4931641;29;20202;-72
2021/10/04 08:50:51;;;;;;;2.28;0.70;;;;;;;16.06;100.00;100962.44;4921393;29;20234;-73
2021/10/04 08:53:19;;;;;;;3.65;1.17;;;;;;;16.08;100.00;100970.31;4945724;29;20190;-72
2021/10/04 08:55:45;;;;;;;1.30;0.70;;;;;;;16.16;100.00;100969.66;4936694;29;20226;-71
2021/10/04 08:58:11;;;;;;;2.55;1.02;;;;;;;16.25;100.00;100965.94;4954950;29;20194;-71
2021/10/04 09:00:37;;;;;;;3.22;0.80;;;;;;;16.08;100.00;100973.06;4940872;28;20638;-71
2021/10/04 09:03:03;;;;;;;2.60;0.57;;;;;;;16.00;100.00;100966.34;4968184;28;20182;-72
2021/10/04 09:05:32;;;;;;;2.33;0.70;;;;;;;15.96;100.00;100967.25;4955628;28;20230;-73
2021/10/04 09:08:07;;;;;;;2.53;0.70;;;;;;;15.97;100.00;100957.91;4944439;28;20241;-71
2021/10/04 09:10:33;;;;;;;1.95;0.68;;;;;;;15.74;100.00;100963.53;4941181;28;20226;-73
2021/10/04 09:13:04;;;;;;;3.42;0.70;;;;;;;15.79;100.00;100967.81;4934042;29;20183;-71
2021/10/04 09:15:48;;;;;;;1.80;0.70;;;;;;;16.04;100.00;100970.09;4921187;29;20601;-71
2021/10/04 09:18:27;;;;;;;0.63;0.50;;;;;;;15.77;100.00;100968.38;4929470;28;20687;-72
2021/10/04 09:21:08;;;;;;;2.05;0.63;;;;;;;15.97;100.00;100964.22;4920825;29;20254;-71
2021/10/04 09:23:55;;;;;;;2.90;0.73;;;;;;;15.88;100.00;100976.97;4912433;29;20191;-72
2021/10/04 09:26:24;;;;;;;2.00;0.88;;;;;;;16.06;100.00;100981.63;4902428;29;20239;-72
2021/10/04 09:28:51;;;;;;;1.42;0.70;;;;;;;15.98;100.00;100981.47;4935046;29;20195;-72
2021/10/04 09:31:23;;;;;;;2.45;1.10;;;;;;;16.15;100.00;100992.69;4936438;29;20237;-72
2021/10/04 09:34:12;;;;;;;1.40;0.90;;;;;;;16.04;100.00;100992.03;4945495;29;20187;-71
2021/10/04 09:36:41;;;;;;;1.92;0.90;;;;;;;16.08;100.00;100984.88;4906839;29;20779;-72
2021/10/04 09:39:11;;;;;;;1.73;1.33;;;;;;;16.12;100.00;100966.69;4944491;29;20672;-73
2021/10/04 09:41:37;;;;;;;2.35;0.60;;;;;;;16.24;100.00;100973.38;4948236;28;20244;-72
2021/10/04 09:44:03;;;;;;;2.15;1.00;;;;;;;16.11;100.00;100976.03;4948648;28;20174;-72
2021/10/04 09:46:33;;;;;;;2.55;0.90;;;;;;;16.05;100.00;100977.22;4938637;28;20234;-73
2021/10/04 09:49:02;;;;;;;1.73;0.60;;;;;;;16.21;100.00;100975.91;4945381;28;20264;-73
2021/10/04 09:51:28;;;;;;;3.17;1.00;;;;;;;16.35;100.00;100971.25;4959054;28;20242;-72
2021/10/04 09:54:11;;;;;;;2.05;0.68;;;;;;;16.55;100.00;100970.88;4912522;29;20278;-73
2021/10/04 09:56:38;;;;;;;1.15;0.60;;;;;;;16.58;100.00;100969.13;4932352;29;20228;-73
2021/10/04 09:59:03;;;;;;;2.72;1.33;;;;;;;16.64;100.00;100970.66;4929998;29;20612;-74
2021/10/04 10:01:32;;;;;;;2.63;0.70;;;;;;;16.79;100.00;100970.34;4946448;28;20292;-73
2021/10/04 10:03:59;;;;;;;4.40;1.00;;;;;;;16.65;100.00;100971.50;4967422;28;20190;-73
2021/10/04 10:06:27;;;;;;;1.30;0.63;;;;;;;16.69;100.00;100973.31;4922091;28;21046;-73
2021/10/04 10:08:57;;;;;;;1.85;0.60;;;;;;;16.67;100.00;100972.81;4920339;29;20189;-72
2021/10/04 10:11:23;;;;;;;1.45;0.75;;;;;;;16.75;100.00;100966.59;4952077;29;20245;-72
2021/10/04 10:13:49;;;;;;;3.13;0.60;;;;;;;16.51;100.00;100956.13;4941511;28;20187;-71
2021/10/04 10:16:32;;;;;;;1.98;0.90;;;;;;;16.60;100.00;100957.88;4954027;28;20702;-72
2021/10/04 10:19:10;;;;;;;2.15;0.70;;;;;;;16.77;100.00;100958.06;4934520;29;20176;-72
2021/10/04 10:21:36;;;;;;;1.40;0.52;;;;;;;16.80;100.00;100965.69;4919389;29;20281;-72
2021/10/04 10:24:08;;;;;;;2.55;0.60;;;;;;;16.73;100.00;100970.78;4928168;28;20269;-71
2021/10/04 10:26:47;;;;;;;1.45;0.63;;;;;;;16.97;100.00;100974.94;4957791;28;20321;-72
2021/10/04 10:29:13;;;;;;;1.92;0.95;;;;;;;16.60;100.00;100977.88;4956117;28;20236;-72
2021/10/04 10:31:50;;;;;;;1.23;0.70;;;;;;;16.80;100.00;100980.22;4975104;28;20256;-73
2021/10/04 10:34:39;;;;;;;0.93;0.50;;;;;;;17.00;100.00;100985.31;4960464;28;20186;-72
2021/10/04 10:37:12;;;;;;;1.70;0.70;;;;;;;17.06;100.00;101000.53;4974760;28;20300;-70
2021/10/04 10:39:43;;;;;;;1.15;0.50;;;;;;;17.02;100.00;100999.53;4969420;28;20221;-71
2021/10/04 10:42:20;;;;;;;3.15;0.80;;;;;;;17.20;100.00;100980.22;4957842;28;20240;-72
2021/10/04 10:44:58;;;;;;;2.40;0.60;;;;;;;17.21;100.00;101000.25;4948177;28;20207;-73
2021/10/04 10:47:39;;;;;;;1.30;0.60;;;;;;;17.25;100.00;101009.50;4973173;28;20257;-72
2021/10/04 10:50:09;;;;;;;1.02;0.50;;;;;;;17.43;100.00;101017.63;4975170;28;20623;-71
2021/10/04 10:52:43;;;;;;;4.05;0.88;;;;;;;17.33;100.00;101018.66;4975141;28;20229;-72
2021/10/04 10:55:20;;;;;;;1.50;0.60;;;;;;;17.38;100.00;101021.28;4974853;28;20237;-72
2021/10/04 10:57:50;;;;;;;1.92;0.60;;;;;;;17.08;100.00;101012.03;4973446;28;20228;-72
2021/10/04 11:00:23;;;;;;;1.75;0.70;;;;;;;16.95;100.00;101010.91;4966306;28;20210;-72
2021/10/04 11:03:00;;;;;;;2.08;0.60;;;;;;;17.12;100.00;101011.13;4958087;28;20210;-72
2021/10/04 11:05:38;;;;;;;1.38;0.57;;;;;;;16.95;100.00;101007.34;4949619;28;20226;-73
2021/10/04 11:08:13;;;;;;;4.28;0.93;;;;;;;16.98;100.00;101004.03;4974221;28;20241;-72
2021/10/04 11:10:48;;;;;;;1.17;0.50;;;;;;;16.98;100.00;101009.50;4965881;28;20229;-73
2021/10/04 11:13:28;;;;;;;1.88;0.55;;;;;;;17.01;100.00;101006.97;4958649;28;20726;-73
2021/10/04 11:16:06;;;;;;;1.42;0.50;;;;;;;17.10;100.00;101007.03;4952611;28;20300;-71
2021/10/04 11:18:39;;;;;;;2.55;0.70;;;;;;;17.21;100.00;101003.81;4959932;28;20185;-72
2021/10/04 11:21:06;;;;;;;4.10;0.80;;;;;;;17.27;100.00;100993.53;4961465;28;20230;-72